sensor_id;sensor_type;location;lat;lon;timestamp;temperature;humidity
38938;DHT22;24727;51.974;20.868;2023-04-08T00:01:15;5.70;1.00
38938;DHT22;24727;51.974;20.868;2023-04-08T00:03:41;5.80;1.00
38938;DHT22;24727;51.974;20.868;2023-04-08T00:06:07;5.80;1.00
38938;DHT22;24727;51.974;20.868;2023-04-08T00:08:33;5.80;1.00
38938;DHT22;24727;51.974;20.868;2023-04-08T00:10:59;5.80;1.00
38938;DHT22;24727;51.974;20.868;2023-04-08T00:13:26;5.80;1.00
38938;DHT22;24727;51.974;20.868;2023-04-08T00:15:53;5.70;1.00
38938;DHT22;24727;51.974;20.868;2023-04-08T00:18:19;5.70;1.00
38938;DHT22;24727;51.974;20.868;2023-04-08T00:20:46;5.70;1.00
38938;DHT22;24727;51.974;20.868;2023-04-08T00:23:12;5.80;1.00
38938;DHT22;24727;51.974;20.868;2023-04-08T00:25:39;5.80;1.00
38938;DHT22;24727;51.974;20.868;2023-04-08T00:28:05;5.70;1.00
38938;DHT22;24727;51.974;20.868;2023-04-08T00:30:32;5.70;1.00
38938;DHT22;24727;51.974;20.868;2023-04-08T00:32:58;5.70;1.00
38938;DHT22;24727;51.974;20.868;2023-04-08T00:35:24;5.70;1.00
38938;DHT22;24727;51.974;20.868;2023-04-08T00:37:51;5.70;1.00
38938;DHT22;24727;51.974;20.868;2023-04-08T00:40:17;5.70;1.00
38938;DHT22;24727;51.974;20.868;2023-04-08T00:42:45;5.70;1.00
38938;DHT22;24727;51.974;20.868;2023-04-08T00:45:11;5.70;1.00
38938;DHT22;24727;51.974;20.868;2023-04-08T00:47:38;5.70;1.00
38938;DHT22;24727;51.974;20.868;2023-04-08T00:50:07;5.60;1.00
38938;DHT22;24727;51.974;20.868;2023-04-08T00:52:36;5.50;1.00
38938;DHT22;24727;51.974;20.868;2023-04-08T00:55:04;5.50;1.00
38938;DHT22;24727;51.974;20.868;2023-04-08T00:57:31;5.40;1.00
38938;DHT22;24727;51.974;20.868;2023-04-08T00:59:59;5.30;1.00
38938;DHT22;24727;51.974;20.868;2023-04-08T01:02:41;5.10;1.00
38938;DHT22;24727;51.974;20.868;2023-04-08T01:08:01;5.00;1.00
38938;DHT22;24727;51.974;20.868;2023-04-08T01:10:32;5.00;1.00
38938;DHT22;24727;51.974;20.868;2023-04-08T01:13:03;4.90;1.00
38938;DHT22;24727;51.974;20.868;2023-04-08T01:15:32;4.80;1.00
38938;DHT22;24727;51.974;20.868;2023-04-08T01:17:58;4.80;1.00
38938;DHT22;24727;51.974;20.868;2023-04-08T01:20:26;4.80;1.00
38938;DHT22;24727;51.974;20.868;2023-04-08T01:25:30;4.70;1.00
38938;DHT22;24727;51.974;20.868;2023-04-08T01:28:10;4.70;1.00
38938;DHT22;24727;51.974;20.868;2023-04-08T01:30:39;4.60;1.00
38938;DHT22;24727;51.974;20.868;2023-04-08T01:33:10;4.60;1.00
38938;DHT22;24727;51.974;20.868;2023-04-08T01:35:38;4.50;1.00
38938;DHT22;24727;51.974;20.868;2023-04-08T01:38:07;4.50;1.00
38938;DHT22;24727;51.974;20.868;2023-04-08T01:40:34;4.60;1.00
38938;DHT22;24727;51.974;20.868;2023-04-08T01:43:04;4.50;1.00
38938;DHT22;24727;51.974;20.868;2023-04-08T01:45:32;4.50;1.00
38938;DHT22;24727;51.974;20.868;2023-04-08T01:47:59;4.50;1.00
38938;DHT22;24727;51.974;20.868;2023-04-08T01:50:27;4.50;1.00
38938;DHT22;24727;51.974;20.868;2023-04-08T01:52:56;4.40;1.00
38938;DHT22;24727;51.974;20.868;2023-04-08T01:55:24;4.40;1.00
38938;DHT22;24727;51.974;20.868;2023-04-08T01:57:55;4.30;1.00
38938;DHT22;24727;51.974;20.868;2023-04-08T02:00:28;4.40;1.00
38938;DHT22;24727;51.974;20.868;2023-04-08T02:02:55;4.30;1.00
38938;DHT22;24727;51.974;20.868;2023-04-08T02:05:23;4.30;1.00
38938;DHT22;24727;51.974;20.868;2023-04-08T02:07:50;4.30;1.00
38938;DHT22;24727;51.974;20.868;2023-04-08T02:10:16;4.20;1.00
38938;DHT22;24727;51.974;20.868;2023-04-08T02:12:44;4.00;1.00
38938;DHT22;24727;51.974;20.868;2023-04-08T02:15:17;4.00;1.00
38938;DHT22;24727;51.974;20.868;2023-04-08T02:18:15;3.90;1.00
38938;DHT22;24727;51.974;20.868;2023-04-08T02:20:47;3.80;1.00
38938;DHT22;24727;51.974;20.868;2023-04-08T02:23:20;3.70;1.00
38938;DHT22;24727;51.974;20.868;2023-04-08T02:25:47;3.70;1.00
38938;DHT22;24727;51.974;20.868;2023-04-08T02:28:17;3.70;1.00
38938;DHT22;24727;51.974;20.868;2023-04-08T02:30:49;3.70;1.00
38938;DHT22;24727;51.974;20.868;2023-04-08T02:33:20;3.60;1.00
38938;DHT22;24727;51.974;20.868;2023-04-08T02:35:50;3.60;1.00
38938;DHT22;24727;51.974;20.868;2023-04-08T02:38:20;3.50;1.00
38938;DHT22;24727;51.974;20.868;2023-04-08T02:40:52;3.50;1.00
38938;DHT22;24727;51.974;20.868;2023-04-08T02:45:53;3.40;1.00
38938;DHT22;24727;51.974;20.868;2023-04-08T02:48:20;3.40;1.00
38938;DHT22;24727;51.974;20.868;2023-04-08T02:50:47;3.30;1.00
38938;DHT22;24727;51.974;20.868;2023-04-08T02:53:14;3.30;1.00
38938;DHT22;24727;51.974;20.868;2023-04-08T02:55:41;3.20;1.00
38938;DHT22;24727;51.974;20.868;2023-04-08T02:58:07;3.20;1.00
38938;DHT22;24727;51.974;20.868;2023-04-08T03:00:33;3.10;1.00
38938;DHT22;24727;51.974;20.868;2023-04-08T03:02:59;3.10;1.00
38938;DHT22;24727;51.974;20.868;2023-04-08T03:05:26;3.10;1.00
38938;DHT22;24727;51.974;20.868;2023-04-08T03:07:52;3.10;1.00
38938;DHT22;24727;51.974;20.868;2023-04-08T03:10:17;3.00;1.00
38938;DHT22;24727;51.974;20.868;2023-04-08T03:12:45;3.00;1.00
38938;DHT22;24727;51.974;20.868;2023-04-08T03:15:11;2.90;1.00
38938;DHT22;24727;51.974;20.868;2023-04-08T03:17:37;2.90;1.00
38938;DHT22;24727;51.974;20.868;2023-04-08T03:20:06;2.90;1.00
38938;DHT22;24727;51.974;20.868;2023-04-08T03:22:33;2.80;1.00
38938;DHT22;24727;51.974;20.868;2023-04-08T03:24:59;2.80;1.00
38938;DHT22;24727;51.974;20.868;2023-04-08T03:27:26;2.80;1.00
38938;DHT22;24727;51.974;20.868;2023-04-08T03:29:56;2.70;1.00
38938;DHT22;24727;51.974;20.868;2023-04-08T03:32:23;2.60;1.00
38938;DHT22;24727;51.974;20.868;2023-04-08T03:34:49;2.60;1.00
38938;DHT22;24727;51.974;20.868;2023-04-08T03:37:17;2.50;1.00
38938;DHT22;24727;51.974;20.868;2023-04-08T03:39:43;2.50;1.00
38938;DHT22;24727;51.974;20.868;2023-04-08T03:42:09;2.40;1.00
38938;DHT22;24727;51.974;20.868;2023-04-08T03:44:36;2.30;1.00
38938;DHT22;24727;51.974;20.868;2023-04-08T03:47:03;2.20;1.00
38938;DHT22;24727;51.974;20.868;2023-04-08T03:49:29;2.20;1.00
38938;DHT22;24727;51.974;20.868;2023-04-08T03:51:55;2.20;1.00
38938;DHT22;24727;51.974;20.868;2023-04-08T03:54:21;2.10;1.00
38938;DHT22;24727;51.974;20.868;2023-04-08T03:56:48;2.10;1.00
38938;DHT22;24727;51.974;20.868;2023-04-08T03:59:15;2.00;1.00
38938;DHT22;24727;51.974;20.868;2023-04-08T04:01:41;1.90;1.00
38938;DHT22;24727;51.974;20.868;2023-04-08T04:04:07;1.90;1.00
38938;DHT22;24727;51.974;20.868;2023-04-08T04:06:32;1.80;1.00
38938;DHT22;24727;51.974;20.868;2023-04-08T04:08:58;1.70;1.00
38938;DHT22;24727;51.974;20.868;2023-04-08T04:11:26;1.70;1.00
38938;DHT22;24727;51.974;20.868;2023-04-08T04:13:53;1.60;1.00
38938;DHT22;24727;51.974;20.868;2023-04-08T04:16:19;1.50;1.00
38938;DHT22;24727;51.974;20.868;2023-04-08T04:18:45;1.60;1.00
38938;DHT22;24727;51.974;20.868;2023-04-08T04:21:11;1.50;1.00
38938;DHT22;24727;51.974;20.868;2023-04-08T04:23:37;1.40;1.00
38938;DHT22;24727;51.974;20.868;2023-04-08T04:26:10;1.40;1.00
38938;DHT22;24727;51.974;20.868;2023-04-08T04:28:37;1.40;1.00
38938;DHT22;24727;51.974;20.868;2023-04-08T04:31:05;1.30;1.00
38938;DHT22;24727;51.974;20.868;2023-04-08T04:33:31;1.30;1.00
38938;DHT22;24727;51.974;20.868;2023-04-08T04:35:58;1.40;1.00
38938;DHT22;24727;51.974;20.868;2023-04-08T04:38:24;1.40;1.00
38938;DHT22;24727;51.974;20.868;2023-04-08T04:40:51;1.50;1.00
38938;DHT22;24727;51.974;20.868;2023-04-08T04:43:18;1.50;1.00
38938;DHT22;24727;51.974;20.868;2023-04-08T04:45:44;1.60;1.00
38938;DHT22;24727;51.974;20.868;2023-04-08T04:48:10;1.70;1.00
38938;DHT22;24727;51.974;20.868;2023-04-08T04:50:37;1.70;1.00
38938;DHT22;24727;51.974;20.868;2023-04-08T04:53:02;1.60;1.00
38938;DHT22;24727;51.974;20.868;2023-04-08T04:55:29;1.70;1.00
38938;DHT22;24727;51.974;20.868;2023-04-08T04:57:56;1.80;1.00
38938;DHT22;24727;51.974;20.868;2023-04-08T05:00:22;2.00;1.00
38938;DHT22;24727;51.974;20.868;2023-04-08T05:02:48;2.10;1.00
38938;DHT22;24727;51.974;20.868;2023-04-08T05:05:14;2.20;1.00
38938;DHT22;24727;51.974;20.868;2023-04-08T05:07:41;2.40;1.00
38938;DHT22;24727;51.974;20.868;2023-04-08T05:10:08;2.50;1.00
38938;DHT22;24727;51.974;20.868;2023-04-08T05:12:35;2.50;1.00
38938;DHT22;24727;51.974;20.868;2023-04-08T05:15:03;2.50;1.00
38938;DHT22;24727;51.974;20.868;2023-04-08T05:17:29;2.60;1.00
38938;DHT22;24727;51.974;20.868;2023-04-08T05:19:56;2.80;1.00
38938;DHT22;24727;51.974;20.868;2023-04-08T05:22:22;2.80;1.00
38938;DHT22;24727;51.974;20.868;2023-04-08T05:24:48;3.00;1.00
38938;DHT22;24727;51.974;20.868;2023-04-08T05:27:21;3.10;1.00
38938;DHT22;24727;51.974;20.868;2023-04-08T05:29:48;3.20;1.00
38938;DHT22;24727;51.974;20.868;2023-04-08T05:32:14;3.30;1.00
38938;DHT22;24727;51.974;20.868;2023-04-08T05:34:43;3.50;1.00
38938;DHT22;24727;51.974;20.868;2023-04-08T05:37:10;3.60;1.00
38938;DHT22;24727;51.974;20.868;2023-04-08T05:39:36;3.80;1.00
38938;DHT22;24727;51.974;20.868;2023-04-08T05:42:02;3.90;1.00
38938;DHT22;24727;51.974;20.868;2023-04-08T05:44:30;4.10;1.00
38938;DHT22;24727;51.974;20.868;2023-04-08T05:46:56;4.30;1.00
38938;DHT22;24727;51.974;20.868;2023-04-08T05:49:24;4.40;1.00
38938;DHT22;24727;51.974;20.868;2023-04-08T05:51:50;4.50;1.00
38938;DHT22;24727;51.974;20.868;2023-04-08T05:54:17;4.60;1.00
38938;DHT22;24727;51.974;20.868;2023-04-08T05:56:43;4.70;1.00
38938;DHT22;24727;51.974;20.868;2023-04-08T05:59:11;4.90;1.00
38938;DHT22;24727;51.974;20.868;2023-04-08T06:01:37;5.00;1.00
38938;DHT22;24727;51.974;20.868;2023-04-08T06:04:03;5.10;1.00
38938;DHT22;24727;51.974;20.868;2023-04-08T06:06:30;5.20;1.00
38938;DHT22;24727;51.974;20.868;2023-04-08T06:08:56;5.30;1.00
38938;DHT22;24727;51.974;20.868;2023-04-08T06:11:22;5.50;1.00
38938;DHT22;24727;51.974;20.868;2023-04-08T06:13:48;5.60;1.00
38938;DHT22;24727;51.974;20.868;2023-04-08T06:16:16;5.60;1.00
38938;DHT22;24727;51.974;20.868;2023-04-08T06:18:42;5.80;1.00
38938;DHT22;24727;51.974;20.868;2023-04-08T06:21:09;6.00;1.00
38938;DHT22;24727;51.974;20.868;2023-04-08T06:23:42;6.20;1.00
38938;DHT22;24727;51.974;20.868;2023-04-08T06:26:09;6.40;1.00
38938;DHT22;24727;51.974;20.868;2023-04-08T06:28:35;6.50;1.00
38938;DHT22;24727;51.974;20.868;2023-04-08T06:31:01;6.50;1.00
38938;DHT22;24727;51.974;20.868;2023-04-08T06:33:28;6.70;1.00
38938;DHT22;24727;51.974;20.868;2023-04-08T06:36:04;6.70;1.00
38938;DHT22;24727;51.974;20.868;2023-04-08T06:38:32;6.80;1.00
38938;DHT22;24727;51.974;20.868;2023-04-08T06:41:02;6.90;1.00
38938;DHT22;24727;51.974;20.868;2023-04-08T06:43:30;7.10;1.00
38938;DHT22;24727;51.974;20.868;2023-04-08T06:45:56;7.30;1.00
38938;DHT22;24727;51.974;20.868;2023-04-08T06:48:25;7.50;1.00
38938;DHT22;24727;51.974;20.868;2023-04-08T06:50:59;7.60;1.00
38938;DHT22;24727;51.974;20.868;2023-04-08T06:53:27;7.60;1.00
38938;DHT22;24727;51.974;20.868;2023-04-08T06:55:57;7.70;1.00
38938;DHT22;24727;51.974;20.868;2023-04-08T06:58:24;7.90;1.00
38938;DHT22;24727;51.974;20.868;2023-04-08T07:00:52;8.00;1.00
38938;DHT22;24727;51.974;20.868;2023-04-08T07:03:18;8.20;1.00
38938;DHT22;24727;51.974;20.868;2023-04-08T07:05:44;8.20;1.00
38938;DHT22;24727;51.974;20.868;2023-04-08T07:08:10;8.40;1.00
38938;DHT22;24727;51.974;20.868;2023-04-08T07:10:37;8.60;1.00
38938;DHT22;24727;51.974;20.868;2023-04-08T07:13:03;8.80;1.00
38938;DHT22;24727;51.974;20.868;2023-04-08T07:15:30;8.90;1.00
38938;DHT22;24727;51.974;20.868;2023-04-08T07:17:58;9.00;1.00
38938;DHT22;24727;51.974;20.868;2023-04-08T07:20:27;9.30;1.00
38938;DHT22;24727;51.974;20.868;2023-04-08T07:22:54;9.10;1.00
38938;DHT22;24727;51.974;20.868;2023-04-08T07:25:20;9.50;1.00
38938;DHT22;24727;51.974;20.868;2023-04-08T07:27:47;9.60;1.00
38938;DHT22;24727;51.974;20.868;2023-04-08T07:30:13;9.50;1.00
38938;DHT22;24727;51.974;20.868;2023-04-08T07:32:39;9.70;1.00
38938;DHT22;24727;51.974;20.868;2023-04-08T07:35:06;9.80;1.00
38938;DHT22;24727;51.974;20.868;2023-04-08T07:37:33;10.00;1.00
38938;DHT22;24727;51.974;20.868;2023-04-08T07:40:02;10.00;1.00
38938;DHT22;24727;51.974;20.868;2023-04-08T07:42:28;10.00;1.00
38938;DHT22;24727;51.974;20.868;2023-04-08T07:44:54;10.00;1.00
38938;DHT22;24727;51.974;20.868;2023-04-08T07:47:21;10.20;1.00
38938;DHT22;24727;51.974;20.868;2023-04-08T07:49:47;10.20;1.00
38938;DHT22;24727;51.974;20.868;2023-04-08T07:52:14;10.30;1.00
38938;DHT22;24727;51.974;20.868;2023-04-08T07:54:41;10.30;1.00
38938;DHT22;24727;51.974;20.868;2023-04-08T07:57:09;10.50;1.00
38938;DHT22;24727;51.974;20.868;2023-04-08T07:59:36;10.70;1.00
38938;DHT22;24727;51.974;20.868;2023-04-08T08:02:02;10.90;1.00
38938;DHT22;24727;51.974;20.868;2023-04-08T08:04:29;11.00;1.00
38938;DHT22;24727;51.974;20.868;2023-04-08T08:06:58;11.20;1.00
38938;DHT22;24727;51.974;20.868;2023-04-08T08:09:24;11.10;1.00
38938;DHT22;24727;51.974;20.868;2023-04-08T08:11:50;11.40;1.00
38938;DHT22;24727;51.974;20.868;2023-04-08T08:14:17;11.60;1.00
38938;DHT22;24727;51.974;20.868;2023-04-08T08:16:43;11.90;1.00
38938;DHT22;24727;51.974;20.868;2023-04-08T08:19:11;12.10;1.00
38938;DHT22;24727;51.974;20.868;2023-04-08T08:21:38;12.10;1.00
38938;DHT22;24727;51.974;20.868;2023-04-08T08:24:05;12.30;1.00
38938;DHT22;24727;51.974;20.868;2023-04-08T08:26:37;12.30;1.00
38938;DHT22;24727;51.974;20.868;2023-04-08T08:29:04;12.60;1.00
38938;DHT22;24727;51.974;20.868;2023-04-08T08:31:31;12.10;1.00
38938;DHT22;24727;51.974;20.868;2023-04-08T08:33:58;12.20;1.00
38938;DHT22;24727;51.974;20.868;2023-04-08T08:36:25;12.20;1.00
38938;DHT22;24727;51.974;20.868;2023-04-08T08:38:54;12.30;1.00
38938;DHT22;24727;51.974;20.868;2023-04-08T08:41:20;12.40;1.00
38938;DHT22;24727;51.974;20.868;2023-04-08T08:43:47;12.60;1.00
38938;DHT22;24727;51.974;20.868;2023-04-08T08:46:15;12.50;1.00
38938;DHT22;24727;51.974;20.868;2023-04-08T08:48:43;12.60;1.00
38938;DHT22;24727;51.974;20.868;2023-04-08T08:51:11;12.30;1.00
38938;DHT22;24727;51.974;20.868;2023-04-08T08:53:38;12.80;1.00
38938;DHT22;24727;51.974;20.868;2023-04-08T08:56:08;13.00;1.00
38938;DHT22;24727;51.974;20.868;2023-04-08T08:58:34;13.40;1.00
38938;DHT22;24727;51.974;20.868;2023-04-08T09:01:01;13.70;1.00
38938;DHT22;24727;51.974;20.868;2023-04-08T09:05:56;13.90;1.00
38938;DHT22;24727;51.974;20.868;2023-04-08T09:08:30;13.70;1.00
38938;DHT22;24727;51.974;20.868;2023-04-08T09:11:16;13.50;1.00
38938;DHT22;24727;51.974;20.868;2023-04-08T09:13:44;13.40;1.00
38938;DHT22;24727;51.974;20.868;2023-04-08T09:16:17;13.60;1.00
38938;DHT22;24727;51.974;20.868;2023-04-08T09:18:45;14.00;1.00
38938;DHT22;24727;51.974;20.868;2023-04-08T09:21:22;14.50;1.00
38938;DHT22;24727;51.974;20.868;2023-04-08T09:23:50;15.00;1.00
38938;DHT22;24727;51.974;20.868;2023-04-08T09:26:22;15.40;1.00
38938;DHT22;24727;51.974;20.868;2023-04-08T09:29:07;15.50;1.00
38938;DHT22;24727;51.974;20.868;2023-04-08T09:31:36;15.50;1.00
38938;DHT22;24727;51.974;20.868;2023-04-08T09:34:12;15.30;1.00
38938;DHT22;24727;51.974;20.868;2023-04-08T09:36:40;15.30;1.00
38938;DHT22;24727;51.974;20.868;2023-04-08T09:39:07;14.80;1.00
38938;DHT22;24727;51.974;20.868;2023-04-08T09:41:36;14.90;1.00
38938;DHT22;24727;51.974;20.868;2023-04-08T09:44:05;15.00;1.00
38938;DHT22;24727;51.974;20.868;2023-04-08T09:49:21;15.40;1.00
38938;DHT22;24727;51.974;20.868;2023-04-08T09:54:58;15.70;1.00
38938;DHT22;24727;51.974;20.868;2023-04-08T10:00:14;16.80;1.00
38938;DHT22;24727;51.974;20.868;2023-04-08T10:03:12;17.10;1.00
38938;DHT22;24727;51.974;20.868;2023-04-08T10:05:43;16.60;1.00
38938;DHT22;24727;51.974;20.868;2023-04-08T10:08:12;16.50;1.00
38938;DHT22;24727;51.974;20.868;2023-04-08T10:10:39;16.90;1.00
38938;DHT22;24727;51.974;20.868;2023-04-08T10:13:07;16.60;1.00
38938;DHT22;24727;51.974;20.868;2023-04-08T10:15:35;16.90;1.00
38938;DHT22;24727;51.974;20.868;2023-04-08T10:23:05;17.00;1.00
38938;DHT22;24727;51.974;20.868;2023-04-08T10:25:52;16.80;1.00
38938;DHT22;24727;51.974;20.868;2023-04-08T10:30:56;17.00;1.00
38938;DHT22;24727;51.974;20.868;2023-04-08T10:33:32;17.50;1.00
38938;DHT22;24727;51.974;20.868;2023-04-08T10:36:10;17.50;1.00
38938;DHT22;24727;51.974;20.868;2023-04-08T10:38:40;17.80;1.00
38938;DHT22;24727;51.974;20.868;2023-04-08T10:41:11;17.20;1.00
38938;DHT22;24727;51.974;20.868;2023-04-08T10:43:38;17.50;1.00
38938;DHT22;24727;51.974;20.868;2023-04-08T10:46:05;17.70;1.00
38938;DHT22;24727;51.974;20.868;2023-04-08T10:48:31;17.50;1.00
38938;DHT22;24727;51.974;20.868;2023-04-08T10:53:32;17.90;1.00
38938;DHT22;24727;51.974;20.868;2023-04-08T10:56:12;17.10;1.00
38938;DHT22;24727;51.974;20.868;2023-04-08T10:58:52;17.60;1.00
38938;DHT22;24727;51.974;20.868;2023-04-08T11:01:19;18.00;1.00
38938;DHT22;24727;51.974;20.868;2023-04-08T11:03:45;18.40;1.00
38938;DHT22;24727;51.974;20.868;2023-04-08T11:06:14;17.60;1.00
38938;DHT22;24727;51.974;20.868;2023-04-08T11:08:41;17.90;1.00
38938;DHT22;24727;51.974;20.868;2023-04-08T11:11:10;17.60;1.00
38938;DHT22;24727;51.974;20.868;2023-04-08T11:13:39;17.90;1.00
38938;DHT22;24727;51.974;20.868;2023-04-08T11:16:07;18.30;1.00
38938;DHT22;24727;51.974;20.868;2023-04-08T11:18:37;18.70;1.00
38938;DHT22;24727;51.974;20.868;2023-04-08T11:21:07;18.80;1.00
38938;DHT22;24727;51.974;20.868;2023-04-08T11:23:35;19.50;1.00
38938;DHT22;24727;51.974;20.868;2023-04-08T11:26:01;18.80;1.00
38938;DHT22;24727;51.974;20.868;2023-04-08T11:28:28;18.40;1.00
38938;DHT22;24727;51.974;20.868;2023-04-08T11:30:56;17.90;1.00
38938;DHT22;24727;51.974;20.868;2023-04-08T11:33:25;18.20;1.00
38938;DHT22;24727;51.974;20.868;2023-04-08T11:35:54;18.90;1.00
38938;DHT22;24727;51.974;20.868;2023-04-08T11:38:23;18.90;1.00
38938;DHT22;24727;51.974;20.868;2023-04-08T11:40:54;18.60;1.00
38938;DHT22;24727;51.974;20.868;2023-04-08T11:43:22;18.60;1.00
38938;DHT22;24727;51.974;20.868;2023-04-08T11:45:48;18.50;1.00
38938;DHT22;24727;51.974;20.868;2023-04-08T11:48:15;18.00;1.00
38938;DHT22;24727;51.974;20.868;2023-04-08T11:50:44;17.50;1.00
38938;DHT22;24727;51.974;20.868;2023-04-08T11:53:17;17.40;1.00
38938;DHT22;24727;51.974;20.868;2023-04-08T11:55:47;17.20;1.00
38938;DHT22;24727;51.974;20.868;2023-04-08T11:58:14;17.20;1.00
38938;DHT22;24727;51.974;20.868;2023-04-08T12:00:41;17.10;1.00
38938;DHT22;24727;51.974;20.868;2023-04-08T12:03:09;17.60;1.00
38938;DHT22;24727;51.974;20.868;2023-04-08T12:05:35;17.50;1.00
38938;DHT22;24727;51.974;20.868;2023-04-08T12:08:02;17.40;1.00
38938;DHT22;24727;51.974;20.868;2023-04-08T12:10:28;17.50;1.00
38938;DHT22;24727;51.974;20.868;2023-04-08T12:12:54;17.80;1.00
38938;DHT22;24727;51.974;20.868;2023-04-08T12:15:22;17.90;1.00
38938;DHT22;24727;51.974;20.868;2023-04-08T12:17:48;18.10;1.00
38938;DHT22;24727;51.974;20.868;2023-04-08T12:20:15;18.40;1.00
38938;DHT22;24727;51.974;20.868;2023-04-08T12:22:42;17.80;1.00
38938;DHT22;24727;51.974;20.868;2023-04-08T12:25:09;18.40;1.00
38938;DHT22;24727;51.974;20.868;2023-04-08T12:27:35;18.50;1.00
38938;DHT22;24727;51.974;20.868;2023-04-08T12:30:02;18.80;1.00
38938;DHT22;24727;51.974;20.868;2023-04-08T12:32:30;19.00;1.00
38938;DHT22;24727;51.974;20.868;2023-04-08T12:34:57;18.60;1.00
38938;DHT22;24727;51.974;20.868;2023-04-08T12:37:23;18.80;1.00
38938;DHT22;24727;51.974;20.868;2023-04-08T12:39:51;18.90;1.00
38938;DHT22;24727;51.974;20.868;2023-04-08T12:42:18;19.00;1.00
38938;DHT22;24727;51.974;20.868;2023-04-08T12:44:44;19.00;1.00
38938;DHT22;24727;51.974;20.868;2023-04-08T12:47:11;18.80;1.00
38938;DHT22;24727;51.974;20.868;2023-04-08T12:49:37;18.80;1.00
38938;DHT22;24727;51.974;20.868;2023-04-08T12:52:04;18.90;1.00
38938;DHT22;24727;51.974;20.868;2023-04-08T12:54:30;18.90;1.00
38938;DHT22;24727;51.974;20.868;2023-04-08T12:56:57;18.40;1.00
38938;DHT22;24727;51.974;20.868;2023-04-08T12:59:24;18.60;1.00
38938;DHT22;24727;51.974;20.868;2023-04-08T13:01:51;18.60;1.00
38938;DHT22;24727;51.974;20.868;2023-04-08T13:04:17;18.70;1.00
38938;DHT22;24727;51.974;20.868;2023-04-08T13:06:45;18.80;1.00
38938;DHT22;24727;51.974;20.868;2023-04-08T13:09:12;18.90;1.00
38938;DHT22;24727;51.974;20.868;2023-04-08T13:11:40;19.20;1.00
38938;DHT22;24727;51.974;20.868;2023-04-08T13:14:06;19.60;1.00
38938;DHT22;24727;51.974;20.868;2023-04-08T13:16:32;21.20;1.00
38938;DHT22;24727;51.974;20.868;2023-04-08T13:18:59;22.60;1.00
38938;DHT22;24727;51.974;20.868;2023-04-08T13:21:26;22.10;1.00
38938;DHT22;24727;51.974;20.868;2023-04-08T13:23:52;22.30;1.00
38938;DHT22;24727;51.974;20.868;2023-04-08T13:26:19;22.30;1.00
38938;DHT22;24727;51.974;20.868;2023-04-08T13:28:45;22.90;1.00
38938;DHT22;24727;51.974;20.868;2023-04-08T13:31:12;23.20;1.00
38938;DHT22;24727;51.974;20.868;2023-04-08T13:33:39;22.90;1.00
38938;DHT22;24727;51.974;20.868;2023-04-08T13:36:07;22.70;1.00
38938;DHT22;24727;51.974;20.868;2023-04-08T13:38:33;21.60;1.00
38938;DHT22;24727;51.974;20.868;2023-04-08T13:40:59;21.60;1.00
38938;DHT22;24727;51.974;20.868;2023-04-08T13:43:26;21.20;1.00
38938;DHT22;24727;51.974;20.868;2023-04-08T13:45:52;21.00;1.00
38938;DHT22;24727;51.974;20.868;2023-04-08T13:48:19;20.20;1.00
38938;DHT22;24727;51.974;20.868;2023-04-08T13:50:46;20.30;1.00
38938;DHT22;24727;51.974;20.868;2023-04-08T13:53:15;19.60;1.00
38938;DHT22;24727;51.974;20.868;2023-04-08T13:55:42;19.50;1.00
38938;DHT22;24727;51.974;20.868;2023-04-08T13:58:09;19.70;1.00
38938;DHT22;24727;51.974;20.868;2023-04-08T14:00:35;19.80;1.00
38938;DHT22;24727;51.974;20.868;2023-04-08T14:03:02;19.90;1.00
38938;DHT22;24727;51.974;20.868;2023-04-08T14:05:41;20.00;1.00
38938;DHT22;24727;51.974;20.868;2023-04-08T14:08:07;19.90;1.00
38938;DHT22;24727;51.974;20.868;2023-04-08T14:10:34;19.10;1.00
38938;DHT22;24727;51.974;20.868;2023-04-08T14:13:00;18.60;1.00
38938;DHT22;24727;51.974;20.868;2023-04-08T14:15:26;18.90;1.00
38938;DHT22;24727;51.974;20.868;2023-04-08T14:17:53;18.80;1.00
38938;DHT22;24727;51.974;20.868;2023-04-08T14:20:20;18.50;1.00
38938;DHT22;24727;51.974;20.868;2023-04-08T14:22:47;18.40;1.00
38938;DHT22;24727;51.974;20.868;2023-04-08T14:25:13;18.10;1.00
38938;DHT22;24727;51.974;20.868;2023-04-08T14:27:40;17.30;1.00
38938;DHT22;24727;51.974;20.868;2023-04-08T14:30:07;17.60;1.00
38938;DHT22;24727;51.974;20.868;2023-04-08T14:32:33;17.90;1.00
38938;DHT22;24727;51.974;20.868;2023-04-08T14:35:00;18.10;1.00
38938;DHT22;24727;51.974;20.868;2023-04-08T14:37:27;18.40;1.00
38938;DHT22;24727;51.974;20.868;2023-04-08T14:39:55;18.40;1.00
38938;DHT22;24727;51.974;20.868;2023-04-08T14:42:22;17.80;1.00
38938;DHT22;24727;51.974;20.868;2023-04-08T14:44:48;17.90;1.00
38938;DHT22;24727;51.974;20.868;2023-04-08T14:47:15;18.00;1.00
38938;DHT22;24727;51.974;20.868;2023-04-08T14:49:41;18.00;1.00
38938;DHT22;24727;51.974;20.868;2023-04-08T14:52:08;17.90;1.00
38938;DHT22;24727;51.974;20.868;2023-04-08T14:54:35;18.00;1.00
38938;DHT22;24727;51.974;20.868;2023-04-08T14:57:01;17.20;1.00
38938;DHT22;24727;51.974;20.868;2023-04-08T14:59:28;17.60;1.00
38938;DHT22;24727;51.974;20.868;2023-04-08T15:01:54;17.70;1.00
38938;DHT22;24727;51.974;20.868;2023-04-08T15:04:20;17.80;1.00
38938;DHT22;24727;51.974;20.868;2023-04-08T15:06:46;17.10;1.00
38938;DHT22;24727;51.974;20.868;2023-04-08T15:09:12;16.80;1.00
38938;DHT22;24727;51.974;20.868;2023-04-08T15:11:39;17.10;1.00
38938;DHT22;24727;51.974;20.868;2023-04-08T15:14:05;17.20;1.00
38938;DHT22;24727;51.974;20.868;2023-04-08T15:16:32;17.30;1.00
38938;DHT22;24727;51.974;20.868;2023-04-08T15:18:58;17.50;1.00
38938;DHT22;24727;51.974;20.868;2023-04-08T15:21:26;17.10;1.00
38938;DHT22;24727;51.974;20.868;2023-04-08T15:23:52;16.80;1.00
38938;DHT22;24727;51.974;20.868;2023-04-08T15:26:19;16.50;1.00
38938;DHT22;24727;51.974;20.868;2023-04-08T15:28:46;16.30;1.00
38938;DHT22;24727;51.974;20.868;2023-04-08T15:31:12;16.40;1.00
38938;DHT22;24727;51.974;20.868;2023-04-08T15:33:39;16.60;1.00
38938;DHT22;24727;51.974;20.868;2023-04-08T15:36:08;16.70;1.00
38938;DHT22;24727;51.974;20.868;2023-04-08T15:38:40;16.40;1.00
38938;DHT22;24727;51.974;20.868;2023-04-08T15:41:15;16.30;1.00
38938;DHT22;24727;51.974;20.868;2023-04-08T15:43:42;16.10;1.00
38938;DHT22;24727;51.974;20.868;2023-04-08T15:46:10;15.90;1.00
38938;DHT22;24727;51.974;20.868;2023-04-08T15:48:36;15.80;1.00
38938;DHT22;24727;51.974;20.868;2023-04-08T15:51:08;15.70;1.00
38938;DHT22;24727;51.974;20.868;2023-04-08T15:53:36;15.50;1.00
38938;DHT22;24727;51.974;20.868;2023-04-08T15:56:02;15.30;1.00
38938;DHT22;24727;51.974;20.868;2023-04-08T15:58:29;15.40;1.00
38938;DHT22;24727;51.974;20.868;2023-04-08T16:00:55;15.40;1.00
38938;DHT22;24727;51.974;20.868;2023-04-08T16:03:23;15.50;1.00
38938;DHT22;24727;51.974;20.868;2023-04-08T16:05:50;15.50;1.00
38938;DHT22;24727;51.974;20.868;2023-04-08T16:08:18;15.50;1.00
38938;DHT22;24727;51.974;20.868;2023-04-08T16:10:45;15.50;1.00